Time;durP1;ratioP1;P1;durP2;ratioP2;P2;SDS_P1;SDS_P2;PMS_P1;PMS_P2;Temp;Humidity;BMP_temperature;BMP_pressure;BME280_temperature;BME280_humidity;BME280_pressure;Samples;Min_cycle;Max_cycle;Signal;HPM_P1;HPM_P2
2022/04/03 00:02:09;;;;;;;7.43;3.20;;;;;;;-2.47;74.51;102181.03;5216478;28;20695;-73
2022/04/03 00:04:40;;;;;;;9.17;3.80;;;;;;;-2.47;74.33;102182.72;5216197;28;20026;-74
2022/04/03 00:07:13;;;;;;;5.32;3.50;;;;;;;-2.48;74.11;102175.84;5215966;28;20057;-74
2022/04/03 00:09:44;;;;;;;5.97;3.60;;;;;;;-2.52;75.36;102184.97;5216399;28;20030;-74
2022/04/03 00:12:15;;;;;;;9.97;3.93;;;;;;;-2.61;75.23;102185.31;5216054;28;20030;-73
2022/04/03 00:14:47;;;;;;;7.97;3.60;;;;;;;-2.62;74.89;102183.53;5216184;28;20381;-75
2022/04/03 00:17:18;;;;;;;7.83;3.37;;;;;;;-2.64;74.93;102174.91;5215968;28;20540;-74
2022/04/03 00:19:49;;;;;;;9.00;3.33;;;;;;;-2.66;75.29;102185.78;5197786;28;20077;-74
2022/04/03 00:22:22;;;;;;;9.27;3.50;;;;;;;-2.65;75.61;102179.91;5215687;28;20034;-76
2022/04/03 00:24:53;;;;;;;9.00;3.60;;;;;;;-2.71;76.26;102177.81;5215839;28;20084;-74
2022/04/03 00:27:25;;;;;;;7.73;3.30;;;;;;;-2.73;75.97;102175.97;5214645;28;20050;-75
2022/04/03 00:29:57;;;;;;;7.43;3.70;;;;;;;-2.77;75.64;102175.78;5216200;28;20108;-76
2022/04/03 00:32:28;;;;;;;8.43;3.97;;;;;;;-2.77;76.02;102175.78;5215571;28;20029;-75
2022/04/03 00:35:00;;;;;;;5.57;3.23;;;;;;;-2.82;76.35;102173.72;5215609;28;20481;-74
2022/04/03 00:37:32;;;;;;;6.90;3.60;;;;;;;-2.83;76.67;102179.63;5215620;28;20389;-73
2022/04/03 00:40:04;;;;;;;7.20;3.70;;;;;;;-2.85;76.50;102176.97;5215866;28;20037;-74
2022/04/03 00:42:36;;;;;;;6.72;3.58;;;;;;;-2.88;76.21;102176.75;5215211;28;20450;-74
2022/04/03 00:45:09;;;;;;;8.05;3.40;;;;;;;-2.90;76.82;102177.44;5215533;28;20044;-74
2022/04/03 00:47:40;;;;;;;10.95;3.92;;;;;;;-2.92;77.29;102177.34;5215196;28;20030;-74
2022/04/03 00:50:11;;;;;;;7.03;3.67;;;;;;;-2.91;77.68;102183.31;5215160;28;20076;-74
2022/04/03 00:52:43;;;;;;;6.93;3.27;;;;;;;-3.01;78.12;102172.53;5213556;28;20361;-74
2022/04/03 00:55:14;;;;;;;7.57;3.50;;;;;;;-3.00;78.21;102181.06;5215047;28;20510;-75
2022/04/03 00:57:46;;;;;;;7.63;4.13;;;;;;;-3.05;78.08;102177.34;5214927;28;20040;-74
2022/04/03 01:00:17;;;;;;;5.27;3.27;;;;;;;-3.09;78.25;102180.47;5215087;28;20179;-75
2022/04/03 01:02:48;;;;;;;8.20;4.07;;;;;;;-3.14;78.58;102182.72;5215319;28;20477;-75
2022/04/03 01:05:21;;;;;;;6.33;4.37;;;;;;;-3.13;78.84;102174.28;5214922;28;20022;-74
2022/04/03 01:07:52;;;;;;;9.60;4.85;;;;;;;-3.16;78.50;102176.63;5214721;28;20069;-73
2022/04/03 01:10:24;;;;;;;10.93;6.57;;;;;;;-3.20;78.43;102177.22;5215120;28;20445;-75
2022/04/03 01:12:55;;;;;;;7.83;4.27;;;;;;;-3.20;78.54;102167.03;5214810;28;20438;-75
2022/04/03 01:15:26;;;;;;;7.23;3.97;;;;;;;-3.24;78.62;102170.16;5214541;28;20098;-75
2022/04/03 01:17:57;;;;;;;8.97;4.73;;;;;;;-3.26;79.06;102170.03;5214310;28;20108;-74
2022/04/03 01:20:29;;;;;;;10.37;5.37;;;;;;;-3.27;79.25;102168.25;5215000;28;20038;-75
2022/04/03 01:23:01;;;;;;;9.50;4.90;;;;;;;-3.30;79.51;102168.97;5214564;28;20033;-75
2022/04/03 01:25:32;;;;;;;10.93;5.27;;;;;;;-3.35;80.02;102167.78;5214582;28;20042;-75
2022/04/03 01:28:04;;;;;;;10.13;5.47;;;;;;;-3.39;79.71;102175.13;5214484;28;20022;-73
2022/04/03 01:30:35;;;;;;;9.03;5.00;;;;;;;-3.41;79.39;102166.47;5214800;28;20033;-74
2022/04/03 01:33:07;;;;;;;11.73;5.37;;;;;;;-3.44;79.75;102172.28;5214541;28;20136;-74
2022/04/03 01:35:38;;;;;;;10.83;5.33;;;;;;;-3.45;80.14;102167.06;5214415;28;20156;-74
2022/04/03 01:38:10;;;;;;;12.37;6.10;;;;;;;-3.50;80.80;102167.63;5214525;28;20033;-74
2022/04/03 01:40:42;;;;;;;9.88;4.95;;;;;;;-3.51;80.75;102167.53;5214565;28;20121;-75
2022/04/03 01:43:13;;;;;;;20.13;7.53;;;;;;;-3.55;81.11;102169.00;5196292;28;20093;-75
2022/04/03 01:45:44;;;;;;;9.80;5.90;;;;;;;-3.58;81.66;102162.81;5214536;28;20121;-75
2022/04/03 01:48:16;;;;;;;9.67;5.20;;;;;;;-3.63;81.75;102165.06;5214540;28;20033;-74
2022/04/03 01:50:48;;;;;;;8.00;4.20;;;;;;;-3.62;82.03;102163.38;5214440;28;20177;-74
2022/04/03 01:53:19;;;;;;;6.53;4.25;;;;;;;-3.62;82.14;102160.84;5214216;28;20093;-75
2022/04/03 01:56:01;;;;;;;7.80;4.63;;;;;;;-3.70;82.32;102166.31;5214087;28;20795;-75
2022/04/03 01:58:33;;;;;;;9.17;4.30;;;;;;;-3.74;82.53;102171.09;5214039;28;20026;-75
2022/04/03 02:01:05;;;;;;;9.32;5.85;;;;;;;-3.73;82.33;102167.78;5213671;28;20355;-75
2022/04/03 02:03:36;;;;;;;6.27;4.30;;;;;;;-3.76;83.01;102167.56;5213903;28;20065;-75
2022/04/03 02:06:07;;;;;;;7.37;4.47;;;;;;;-3.77;83.74;102165.78;5214268;28;20433;-75
2022/04/03 02:08:39;;;;;;;8.10;4.43;;;;;;;-3.74;83.46;102154.13;5214155;28;20182;-75
2022/04/03 02:11:10;;;;;;;10.37;4.40;;;;;;;-3.74;83.62;102166.88;5196723;28;20113;-75
2022/04/03 02:13:42;;;;;;;6.27;4.07;;;;;;;-3.81;83.38;102161.28;5214059;28;20021;-75
2022/04/03 02:16:15;;;;;;;8.73;4.37;;;;;;;-3.86;84.14;102159.28;5196132;28;20096;-75
2022/04/03 02:18:46;;;;;;;11.48;4.68;;;;;;;-3.90;83.86;102156.44;5214030;28;20611;-75
2022/04/03 02:21:17;;;;;;;12.13;3.90;;;;;;;-3.99;83.61;102156.69;5213873;28;20030;-75
2022/04/03 02:23:49;;;;;;;8.67;4.07;;;;;;;-3.98;83.58;102150.81;5213720;28;20117;-75
2022/04/03 02:26:20;;;;;;;7.37;4.27;;;;;;;-3.99;83.95;102156.69;5214127;28;20484;-75
2022/04/03 02:28:52;;;;;;;8.33;3.97;;;;;;;-4.04;84.14;102158.06;5213998;28;20105;-75
2022/04/03 02:31:24;;;;;;;12.18;4.60;;;;;;;-4.05;84.89;102157.16;5213760;28;20499;-75
2022/04/03 02:33:55;;;;;;;9.73;4.70;;;;;;;-4.06;85.15;102157.03;5213754;28;20026;-75
2022/04/03 02:36:27;;;;;;;10.83;4.47;;;;;;;-4.07;84.73;102152.75;5213948;28;20038;-75
2022/04/03 02:38:58;;;;;;;11.80;4.73;;;;;;;-4.10;84.88;102158.50;5214190;28;20108;-75
2022/04/03 02:41:29;;;;;;;6.33;4.13;;;;;;;-4.15;85.13;102151.31;5214005;28;20093;-74
2022/04/03 02:44:03;;;;;;;10.13;4.60;;;;;;;-4.14;85.30;102155.63;5213900;28;20425;-74
2022/04/03 02:46:35;;;;;;;8.75;4.45;;;;;;;-4.14;85.49;102153.97;5213631;28;20033;-75
2022/04/03 02:49:08;;;;;;;8.43;4.70;;;;;;;-4.21;85.69;102150.13;5213907;28;20034;-75
2022/04/03 02:51:39;;;;;;;7.25;4.22;;;;;;;-4.24;86.18;102160.09;5213761;28;20026;-74
2022/04/03 02:54:11;;;;;;;11.23;4.50;;;;;;;-4.26;86.41;102153.13;5213660;28;20025;-75
2022/04/03 02:56:43;;;;;;;8.00;4.78;;;;;;;-4.27;86.60;102156.44;5213901;28;20477;-75
2022/04/03 02:59:14;;;;;;;9.40;4.87;;;;;;;-4.27;86.95;102159.00;5213789;28;20026;-74
2022/04/03 03:01:46;;;;;;;9.93;5.70;;;;;;;-4.29;87.90;102163.09;5213564;28;20459;-75
2022/04/03 03:04:17;;;;;;;6.73;4.43;;;;;;;-4.25;87.43;102162.53;5213266;28;20532;-75
2022/04/03 03:06:48;;;;;;;8.93;4.73;;;;;;;-4.33;87.56;102167.09;5213667;28;20484;-75
2022/04/03 03:09:20;;;;;;;8.67;4.77;;;;;;;-4.32;87.68;102162.88;5214040;28;20157;-75
2022/04/03 03:11:51;;;;;;;10.47;5.10;;;;;;;-4.33;87.54;102161.09;5217402;28;20054;-74
2022/04/03 03:14:22;;;;;;;8.57;4.63;;;;;;;-4.35;88.21;102167.75;5217489;28;20040;-74
2022/04/03 03:16:55;;;;;;;9.63;5.10;;;;;;;-4.35;88.25;102163.53;5217096;28;20022;-74
2022/04/03 03:19:26;;;;;;;8.82;4.65;;;;;;;-4.38;87.79;102165.00;5217659;28;20068;-75
2022/04/03 03:21:58;;;;;;;8.10;4.47;;;;;;;-4.42;87.96;102167.31;5216007;28;20026;-74
2022/04/03 03:24:29;;;;;;;9.37;5.00;;;;;;;-4.43;88.14;102168.13;5217510;28;20022;-76
2022/04/03 03:27:01;;;;;;;7.47;4.47;;;;;;;-4.45;88.41;102171.31;5217629;28;20061;-77
2022/04/03 03:29:32;;;;;;;8.68;5.10;;;;;;;-4.51;88.20;102169.22;5217380;28;20045;-75
2022/04/03 03:32:04;;;;;;;10.33;5.20;;;;;;;-4.52;88.46;102172.56;5216940;28;20052;-75
2022/04/03 03:34:36;;;;;;;9.98;4.63;;;;;;;-4.55;88.36;102177.44;5217119;28;20460;-75
2022/04/03 03:37:08;;;;;;;7.57;4.80;;;;;;;-4.55;88.48;102167.25;5216961;28;20116;-75
2022/04/03 03:39:39;;;;;;;10.10;5.30;;;;;;;-4.61;88.35;102167.69;5217450;28;20428;-75
2022/04/03 03:42:11;;;;;;;9.13;4.63;;;;;;;-4.63;88.43;102171.78;5217231;28;20029;-75
2022/04/03 03:44:42;;;;;;;10.37;4.63;;;;;;;-4.65;88.69;102168.25;5217326;28;20129;-75
2022/04/03 03:47:14;;;;;;;9.33;4.47;;;;;;;-4.69;88.03;102173.88;5216891;28;20017;-75
2022/04/03 03:49:45;;;;;;;7.87;4.40;;;;;;;-4.68;88.60;102174.78;5217132;28;20587;-75
2022/04/03 03:52:17;;;;;;;10.10;5.00;;;;;;;-4.72;88.63;102173.66;5216262;28;20042;-75
2022/04/03 03:54:48;;;;;;;6.83;4.50;;;;;;;-4.73;88.53;102171.00;5216604;28;20077;-74
2022/04/03 03:57:19;;;;;;;10.80;4.57;;;;;;;-4.76;88.22;102164.94;5217399;28;20176;-74
2022/04/03 03:59:51;;;;;;;9.43;4.33;;;;;;;-4.72;88.92;102170.25;5217067;28;20030;-74
2022/04/03 04:02:23;;;;;;;8.00;4.82;;;;;;;-4.77;89.53;102170.78;5216941;28;20029;-75
2022/04/03 04:04:55;;;;;;;8.87;4.63;;;;;;;-4.81;89.27;102171.38;5216481;28;20026;-75
2022/04/03 04:07:36;;;;;;;;;;;;;;;-4.89;88.92;102172.47;5216187;28;20026;-75
2022/04/03 04:10:13;;;;;;;9.25;4.88;;;;;;;-4.81;89.56;102171.38;5216524;28;19917;-75
2022/04/03 04:12:46;;;;;;;10.52;5.00;;;;;;;-4.83;89.89;102175.47;5217153;28;20053;-76
2022/04/03 04:15:18;;;;;;;6.90;4.80;;;;;;;-4.84;89.81;102172.81;5217062;28;20056;-75
2022/04/03 04:17:52;;;;;;;8.95;4.60;;;;;;;-4.84;89.98;102171.13;5217087;28;20058;-74
2022/04/03 04:20:24;;;;;;;7.95;5.03;;;;;;;-4.92;89.70;102176.47;5216317;28;20351;-75
2022/04/03 04:22:55;;;;;;;6.43;4.43;;;;;;;-4.92;89.55;102171.38;5216868;28;20076;-76
2022/04/03 04:25:27;;;;;;;7.57;4.90;;;;;;;-4.95;89.91;102175.44;5216730;28;20036;-77
2022/04/03 04:28:01;;;;;;;8.63;5.27;;;;;;;-4.91;90.01;102174.03;5216703;28;20460;-76
2022/04/03 04:30:32;;;;;;;13.35;4.65;;;;;;;-4.96;90.43;102180.41;5216634;28;20041;-75
2022/04/03 04:33:07;;;;;;;11.33;5.50;;;;;;;-4.98;89.86;102182.84;5216245;28;20037;-76
2022/04/03 04:35:39;;;;;;;9.27;4.75;;;;;;;-5.01;90.26;102187.72;5198151;28;20084;-75
2022/04/03 04:38:10;;;;;;;8.10;4.63;;;;;;;-5.06;90.25;102191.59;5216350;28;20101;-76
2022/04/03 04:40:43;;;;;;;8.97;4.73;;;;;;;-5.08;90.26;102182.97;5216455;28;20045;-76
2022/04/03 04:43:14;;;;;;;13.75;5.38;;;;;;;-5.05;90.56;102184.84;5216013;28;20507;-76
2022/04/03 04:45:45;;;;;;;7.80;5.27;;;;;;;-5.07;90.99;102186.38;5215794;28;20033;-75
2022/04/03 04:48:17;;;;;;;13.43;5.80;;;;;;;-5.04;91.20;102182.44;5215922;28;20822;-74
2022/04/03 04:50:49;;;;;;;10.20;5.97;;;;;;;-4.97;92.36;102184.63;5215915;28;20418;-75
2022/04/03 04:53:20;;;;;;;9.45;6.72;;;;;;;-4.94;92.50;102183.97;5216072;28;20038;-76
2022/04/03 04:55:52;;;;;;;10.93;5.90;;;;;;;-4.91;93.32;102189.28;5215924;28;20025;-75
2022/04/03 04:58:23;;;;;;;15.57;6.50;;;;;;;-4.87;92.53;102187.84;5215820;28;20389;-74
2022/04/03 05:00:55;;;;;;;11.07;5.77;;;;;;;-4.84;93.21;102191.50;5215967;28;20022;-74
2022/04/03 05:03:26;;;;;;;9.47;6.00;;;;;;;-4.84;92.78;102204.22;5215700;28;20119;-75
2022/04/03 05:05:58;;;;;;;9.87;6.00;;;;;;;-4.87;92.46;102206.53;5215201;28;20365;-75
2022/04/03 05:08:30;;;;;;;10.70;5.70;;;;;;;-4.90;92.41;102206.31;5215191;28;20029;-75
2022/04/03 05:11:01;;;;;;;9.77;5.30;;;;;;;-4.97;92.23;102201.56;5215574;28;20386;-76
2022/04/03 05:13:33;;;;;;;10.83;5.87;;;;;;;-4.99;92.70;102208.16;5215363;28;20057;-75
2022/04/03 05:16:05;;;;;;;8.82;5.93;;;;;;;-4.99;92.51;102208.16;5215095;28;20651;-75
2022/04/03 05:18:37;;;;;;;10.73;5.22;;;;;;;-4.99;92.26;102205.63;5215173;28;20108;-75
2022/04/03 05:21:10;;;;;;;12.63;6.13;;;;;;;-5.04;91.98;102202.78;5215121;28;20029;-76
2022/04/03 05:23:41;;;;;;;12.35;6.65;;;;;;;-4.93;92.47;102216.25;5213694;28;20873;-75
2022/04/03 05:26:13;;;;;;;8.53;5.00;;;;;;;-4.88;93.19;102212.38;5213426;28;20046;-74
2022/04/03 05:28:44;;;;;;;7.97;5.73;;;;;;;-4.76;93.06;102220.91;5214932;28;20033;-74
2022/04/03 05:31:16;;;;;;;10.63;5.63;;;;;;;-4.70;93.30;102215.41;5215063;28;20042;-75
2022/04/03 05:33:48;;;;;;;10.43;6.03;;;;;;;-4.63;93.00;102215.03;5214266;28;20366;-75
2022/04/03 05:36:19;;;;;;;11.52;6.50;;;;;;;-4.54;92.99;102216.47;5197073;28;20030;-74
2022/04/03 05:38:51;;;;;;;9.53;6.40;;;;;;;-4.38;92.79;102228.63;5214228;28;20032;-76
2022/04/03 05:41:22;;;;;;;11.00;6.20;;;;;;;-4.32;93.40;102232.50;5214795;28;20032;-74
2022/04/03 05:43:54;;;;;;;8.83;6.27;;;;;;;-4.22;93.03;102231.50;5214820;28;20037;-76
2022/04/03 05:46:26;;;;;;;13.70;6.50;;;;;;;-4.11;92.31;102228.03;5214578;28;20030;-76
2022/04/03 05:48:59;;;;;;;12.90;6.90;;;;;;;-3.99;92.21;102229.66;5214878;28;20030;-75
2022/04/03 05:51:31;;;;;;;12.05;6.53;;;;;;;-3.86;92.26;102235.72;5214573;28;20055;-75
2022/04/03 05:54:02;;;;;;;15.83;7.23;;;;;;;-3.73;91.66;102234.03;5214415;28;20030;-76
2022/04/03 05:56:34;;;;;;;;;;;;;;;-3.65;90.94;102240.53;5215118;28;20137;-75
2022/04/03 05:59:06;;;;;;;9.20;6.47;;;;;;;-3.51;90.53;102232.16;5214163;28;19917;-74
2022/04/03 06:01:37;;;;;;;10.03;6.73;;;;;;;-3.40;90.04;102232.88;5214154;28;20088;-74
2022/04/03 06:04:08;;;;;;;10.87;6.90;;;;;;;-3.30;89.64;102240.38;5214341;28;20030;-74
2022/04/03 06:06:40;;;;;;;9.43;6.20;;;;;;;-3.17;89.34;102241.16;5214650;28;20108;-75
2022/04/03 06:09:11;;;;;;;11.33;5.70;;;;;;;-3.04;89.16;102240.31;5213542;28;20037;-76
2022/04/03 06:11:43;;;;;;;10.57;6.47;;;;;;;-2.92;88.51;102241.13;5214338;28;20104;-77
2022/04/03 06:14:14;;;;;;;18.30;8.00;;;;;;;-2.81;88.16;102239.28;5214314;28;20466;-76
2022/04/03 06:16:46;;;;;;;11.53;7.87;;;;;;;-2.70;88.38;102238.31;5214025;28;20033;-75
2022/04/03 06:19:17;;;;;;;15.00;9.17;;;;;;;-2.58;87.72;102244.22;5213414;28;20088;-73
2022/04/03 06:21:49;;;;;;;13.03;8.23;;;;;;;-2.48;86.55;102248.25;5196201;28;20080;-74
2022/04/03 06:24:20;;;;;;;18.27;8.10;;;;;;;-2.32;86.55;102246.66;5213398;28;20030;-72
2022/04/03 06:26:52;;;;;;;17.07;9.17;;;;;;;-2.24;86.59;102245.44;5213752;28;20104;-73
2022/04/03 06:29:23;;;;;;;17.17;7.13;;;;;;;-2.16;86.03;102248.50;5213531;28;20076;-75
2022/04/03 06:31:54;;;;;;;13.07;7.40;;;;;;;-2.06;85.59;102248.25;5213707;28;20032;-73
2022/04/03 06:34:26;;;;;;;13.67;7.33;;;;;;;-1.97;85.51;102246.28;5214044;28;20026;-74
2022/04/03 06:36:57;;;;;;;10.00;6.47;;;;;;;-1.88;85.06;102241.75;5195739;28;20069;-72
2022/04/03 06:39:28;;;;;;;10.87;6.43;;;;;;;-1.87;84.80;102240.06;5213418;28;20114;-74
2022/04/03 06:42:00;;;;;;;11.23;6.17;;;;;;;-1.81;84.87;102244.69;5213759;28;20029;-74
2022/04/03 06:44:31;;;;;;;12.07;6.13;;;;;;;-1.85;84.60;102246.19;5215653;28;20026;-74
2022/04/03 06:47:03;;;;;;;13.43;6.20;;;;;;;-1.91;84.46;102245.81;5217625;28;20022;-74
2022/04/03 06:49:35;;;;;;;9.93;5.60;;;;;;;-1.94;85.00;102233.69;5217901;28;20030;-74
2022/04/03 06:52:08;;;;;;;9.63;5.57;;;;;;;-1.95;84.57;102239.59;5218313;28;20033;-73
2022/04/03 06:54:40;;;;;;;10.95;5.85;;;;;;;-1.95;84.98;102243.81;5218025;28;20022;-75
2022/04/03 06:57:14;;;;;;;9.03;6.60;;;;;;;-1.88;85.68;102244.31;5216508;28;20041;-75
2022/04/03 06:59:46;;;;;;;9.57;6.40;;;;;;;-1.78;85.86;102247.44;5217836;28;20041;-74
2022/04/03 07:02:17;;;;;;;12.27;7.05;;;;;;;-1.76;85.96;102243.28;5217769;28;20028;-74
2022/04/03 07:04:48;;;;;;;11.63;6.90;;;;;;;-1.73;86.23;102248.59;5217586;28;20034;-74
2022/04/03 07:07:24;;;;;;;10.90;6.93;;;;;;;-1.67;86.46;102246.41;5217546;28;20038;-74
2022/04/03 07:09:56;;;;;;;8.98;6.80;;;;;;;-1.62;86.28;102254.38;5217448;28;20446;-74
2022/04/03 07:12:27;;;;;;;10.27;7.23;;;;;;;-1.61;86.41;102249.34;5216749;28;20026;-73
2022/04/03 07:14:59;;;;;;;10.53;7.00;;;;;;;-1.54;86.44;102251.47;5217195;28;20037;-73
2022/04/03 07:17:30;;;;;;;15.47;7.37;;;;;;;-1.43;86.63;102251.22;5217262;28;20113;-74
2022/04/03 07:20:02;;;;;;;16.10;7.20;;;;;;;-1.33;86.60;102256.09;5217074;28;20081;-76
2022/04/03 07:22:33;;;;;;;14.33;7.90;;;;;;;-1.30;86.45;102251.19;5216923;28;20054;-73
2022/04/03 07:25:05;;;;;;;9.40;8.37;;;;;;;-1.20;86.52;102256.03;5216773;28;20030;-74
2022/04/03 07:27:37;;;;;;;11.37;7.93;;;;;;;-1.02;86.46;102248.53;5216869;28;20371;-74
2022/04/03 07:30:12;;;;;;;13.38;8.40;;;;;;;-0.80;86.65;102248.09;5216862;28;20095;-75
2022/04/03 07:32:43;;;;;;;16.02;9.00;;;;;;;-0.45;86.36;102251.78;5216672;28;20041;-74
2022/04/03 07:35:15;;;;;;;13.13;8.30;;;;;;;-0.12;84.70;102258.69;5199540;28;20499;-74
2022/04/03 07:37:47;;;;;;;11.90;8.02;;;;;;;0.12;83.96;102257.44;5216976;28;20060;-73
2022/04/03 07:40:18;;;;;;;11.97;7.40;;;;;;;0.38;83.01;102268.19;5216871;28;20026;-73
2022/04/03 07:42:51;;;;;;;11.83;7.50;;;;;;;0.59;82.48;102260.72;5216822;28;20084;-73
2022/04/03 07:45:23;;;;;;;;;;;;;;;0.66;82.81;102260.25;5217225;28;20477;-72
2022/04/03 07:47:54;;;;;;;11.30;7.05;;;;;;;0.99;81.10;102264.47;5216581;28;19921;-74
2022/04/03 07:50:25;;;;;;;8.70;7.13;;;;;;;1.16;80.98;102255.00;5216154;28;20059;-74
2022/04/03 07:52:57;;;;;;;7.93;6.73;;;;;;;1.30;79.72;102259.13;5216616;28;20034;-75
2022/04/03 07:55:28;;;;;;;11.03;6.03;;;;;;;1.42;79.06;102262.31;5215526;28;20045;-74
2022/04/03 07:57:59;;;;;;;11.20;5.77;;;;;;;1.47;77.99;102264.25;5215938;28;20036;-74
2022/04/03 08:00:31;;;;;;;13.07;6.37;;;;;;;1.62;78.06;102262.38;5216019;28;20097;-74
2022/04/03 08:03:02;;;;;;;13.37;6.20;;;;;;;1.75;77.07;102266.41;5215760;28;20030;-73
2022/04/03 08:05:34;;;;;;;11.03;5.00;;;;;;;1.83;76.21;102252.22;5216134;28;20069;-74
2022/04/03 08:08:05;;;;;;;7.87;4.13;;;;;;;1.88;73.73;102261.03;5215884;28;20196;-74
2022/04/03 08:10:36;;;;;;;7.27;4.20;;;;;;;2.10;73.75;102265.47;5215801;28;20125;-74
2022/04/03 08:13:08;;;;;;;5.47;3.80;;;;;;;2.20;72.41;102259.06;5219425;28;20033;-73
2022/04/03 08:15:39;;;;;;;15.53;4.60;;;;;;;2.44;72.12;102264.41;5236246;28;20040;-75
2022/04/03 08:18:11;;;;;;;6.27;3.80;;;;;;;2.60;70.37;102265.09;5235811;28;20155;-76
2022/04/03 08:20:43;;;;;;;7.60;3.60;;;;;;;2.66;68.70;102260.25;5235023;28;20030;-74
2022/04/03 08:23:14;;;;;;;8.75;3.97;;;;;;;2.73;68.21;102268.25;5236228;28;20621;-74
2022/04/03 08:25:46;;;;;;;5.10;2.33;;;;;;;2.83;64.92;102269.53;5217930;28;20030;-75
2022/04/03 08:28:17;;;;;;;6.63;2.47;;;;;;;2.94;64.34;102267.44;5234092;28;20437;-74
2022/04/03 08:30:49;;;;;;;7.07;2.87;;;;;;;3.16;65.28;102263.19;5236216;28;20515;-75
2022/04/03 08:33:21;;;;;;;5.50;2.37;;;;;;;3.22;63.75;102278.88;5236058;28;20112;-73
2022/04/03 08:35:52;;;;;;;5.88;3.38;;;;;;;3.31;63.11;102273.25;5234677;28;20033;-75
2022/04/03 08:38:24;;;;;;;7.67;2.10;;;;;;;3.52;64.10;102274.09;5235980;28;20033;-73
2022/04/03 08:40:55;;;;;;;5.63;3.00;;;;;;;3.74;63.60;102274.97;5235996;28;20021;-74
2022/04/03 08:43:28;;;;;;;7.73;2.30;;;;;;;3.87;62.85;102271.16;5233524;28;20468;-76
2022/04/03 08:46:00;;;;;;;2.72;2.03;;;;;;;3.96;61.92;102276.66;5235985;28;20034;-74
2022/04/03 08:48:32;;;;;;;6.77;2.40;;;;;;;4.05;60.51;102276.16;5236249;28;20362;-73
2022/04/03 08:51:05;;;;;;;5.20;2.13;;;;;;;4.18;61.05;102283.53;5235879;28;20455;-73
2022/04/03 08:53:38;;;;;;;5.38;2.03;;;;;;;4.20;59.30;102282.78;5235791;28;20025;-76
2022/04/03 08:56:10;;;;;;;3.95;1.65;;;;;;;4.33;58.30;102276.38;5236147;28;20558;-76
2022/04/03 08:58:41;;;;;;;5.17;2.10;;;;;;;4.25;58.76;102277.78;5237169;28;20037;-76
2022/04/03 09:01:16;;;;;;;4.77;2.30;;;;;;;4.26;58.94;102274.38;5244872;28;20257;-74
2022/04/03 09:03:47;;;;;;;4.10;2.00;;;;;;;4.35;59.06;102274.72;5236381;28;20117;-75
2022/04/03 09:06:21;;;;;;;4.10;2.40;;;;;;;4.75;59.42;102267.53;5217867;28;20112;-77
2022/04/03 09:08:53;;;;;;;5.68;3.03;;;;;;;5.30;56.56;102269.38;5234375;28;20026;-75
2022/04/03 09:11:28;;;;;;;4.93;2.60;;;;;;;5.83;54.73;102271.91;5235523;28;20029;-74
2022/04/03 09:14:10;;;;;;;4.88;2.40;;;;;;;6.56;54.28;102267.13;5231514;28;20822;-77
2022/04/03 09:16:42;;;;;;;6.45;2.70;;;;;;;7.06;51.15;102263.25;5234706;28;20492;-74
2022/04/03 09:19:13;;;;;;;4.45;2.25;;;;;;;7.44;49.50;102266.81;5235071;28;20059;-76
2022/04/03 09:21:45;;;;;;;4.80;2.03;;;;;;;8.31;49.34;102260.94;5233958;28;20026;-73
2022/04/03 09:24:16;;;;;;;5.67;2.77;;;;;;;9.45;47.53;102250.84;5217094;28;20049;-75
2022/04/03 09:26:57;;;;;;;7.00;2.27;;;;;;;10.11;45.64;102247.41;5234990;28;20036;-77
2022/04/03 09:29:29;;;;;;;6.70;2.03;;;;;;;9.49;43.35;102252.63;5234035;28;20033;-77
2022/04/03 09:32:02;;;;;;;6.23;2.30;;;;;;;7.82;45.31;102247.75;5234383;28;20075;-76
2022/04/03 09:34:34;;;;;;;3.72;2.25;;;;;;;7.22;47.79;102251.56;5234753;28;20083;-76
2022/04/03 09:37:06;;;;;;;6.25;2.38;;;;;;;6.98;48.64;102249.22;5233336;28;20037;-76
2022/04/03 09:39:38;;;;;;;4.50;2.17;;;;;;;6.77;50.10;102250.44;5234641;28;20378;-76
2022/04/03 09:42:11;;;;;;;4.90;2.10;;;;;;;6.62;50.89;102248.31;5234789;28;20754;-74
2022/04/03 09:44:44;;;;;;;7.85;3.25;;;;;;;7.31;48.53;102254.38;5233393;28;20280;-75
2022/04/03 09:47:21;;;;;;;4.40;2.28;;;;;;;8.53;45.80;102249.25;5233920;28;20253;-75
2022/04/03 09:49:58;;;;;;;6.85;2.63;;;;;;;10.51;42.89;102237.47;5234507;28;20109;-75
2022/04/03 09:52:45;;;;;;;4.32;1.92;;;;;;;8.97;44.00;102240.50;5233497;28;20029;-75
2022/04/03 09:55:18;;;;;;;3.30;1.48;;;;;;;7.93;44.47;102243.69;5234219;28;20029;-75
2022/04/03 09:58:03;;;;;;;;;;;;;;;9.26;45.62;102241.00;5234585;28;20036;-74
2022/04/03 10:00:38;;;;;;;3.38;1.45;;;;;;;8.50;43.17;102237.09;5233655;28;20023;-77
2022/04/03 10:03:11;;;;;;;2.88;1.48;;;;;;;9.13;43.40;102230.38;5235740;28;20025;-76
2022/04/03 10:05:43;;;;;;;7.55;2.25;;;;;;;10.57;41.84;102217.56;5234818;28;20108;-77
2022/04/03 10:08:15;;;;;;;3.97;1.50;;;;;;;12.09;37.44;102218.66;5236494;28;20715;-78
2022/04/03 10:10:47;;;;;;;1.83;1.42;;;;;;;13.55;35.84;102224.03;5237384;28;20461;-79
2022/04/03 10:13:19;;;;;;;3.42;1.70;;;;;;;12.59;33.18;102212.72;5235554;28;20029;-77
2022/04/03 10:15:52;;;;;;;2.60;1.67;;;;;;;11.24;34.96;102215.56;5235327;28;20032;-77
2022/04/03 10:18:24;;;;;;;5.45;1.50;;;;;;;13.43;33.33;102206.63;5234015;28;20052;-73
2022/04/03 10:20:55;;;;;;;4.50;1.67;;;;;;;14.16;31.93;102199.38;5233958;28;20049;-77
2022/04/03 10:23:30;;;;;;;7.03;1.77;;;;;;;12.70;32.07;102207.47;5234695;28;20052;-76
2022/04/03 10:26:04;;;;;;;7.63;1.83;;;;;;;11.29;33.52;102208.63;5234318;28;20049;-75
2022/04/03 10:28:40;;;;;;;4.18;1.50;;;;;;;9.83;37.26;102211.44;5234674;28;20037;-78
2022/04/03 10:31:16;;;;;;;3.45;1.38;;;;;;;8.82;39.57;102207.31;5234497;28;20374;-75
2022/04/03 10:33:49;;;;;;;4.65;1.98;;;;;;;8.35;41.50;102211.63;5234001;28;20029;-76
2022/04/03 10:36:26;;;;;;;1.55;1.33;;;;;;;7.90;42.11;102215.03;5233957;28;20217;-76
2022/04/03 10:39:04;;;;;;;5.28;1.50;;;;;;;9.30;41.25;102208.97;5200219;28;20124;-75
2022/04/03 10:41:40;;;;;;;4.57;1.67;;;;;;;12.32;36.61;102190.84;5234562;28;20037;-77
2022/04/03 10:44:22;;;;;;;9.57;6.00;;;;;;;15.23;31.47;102191.63;5234224;28;20072;-74
2022/04/03 10:47:03;;;;;;;1.90;1.20;;;;;;;14.01;31.84;102197.69;5234136;28;20429;-74
2022/04/03 10:49:37;;;;;;;2.78;1.52;;;;;;;12.50;33.76;102191.75;5234444;28;20038;-75
2022/04/03 10:52:33;;;;;;;5.40;2.03;;;;;;;10.97;35.04;102198.81;5234052;28;20575;-75
2022/04/03 10:55:25;;;;;;;2.70;1.40;;;;;;;10.53;36.79;102194.06;5222398;28;20092;-74
2022/04/03 10:58:06;;;;;;;7.68;1.50;;;;;;;10.06;37.28;102186.56;5234083;28;20120;-80
2022/04/03 11:00:41;;;;;;;2.78;1.48;;;;;;;10.25;36.84;102185.03;5234373;28;20057;-73
2022/04/03 11:03:19;;;;;;;4.07;1.67;;;;;;;9.38;38.14;102180.47;5234399;28;20062;-76
2022/04/03 11:05:53;;;;;;;5.57;1.83;;;;;;;8.29;40.21;102185.56;5233994;28;20029;-79
2022/04/03 11:08:43;;;;;;;3.88;1.67;;;;;;;7.88;43.22;102185.59;5234839;28;20044;-78
2022/04/03 11:11:14;;;;;;;2.78;1.70;;;;;;;7.47;43.52;102185.56;5234238;28;20034;-76
2022/04/03 11:13:45;;;;;;;2.90;1.80;;;;;;;7.73;43.74;102188.75;5234178;28;20387;-74
2022/04/03 11:16:19;;;;;;;1.77;1.47;;;;;;;7.45;43.01;102182.06;5233612;28;20040;-80
2022/04/03 11:18:51;;;;;;;3.33;1.48;;;;;;;7.99;41.91;102180.63;5233872;28;20041;-77
2022/04/03 11:21:27;;;;;;;5.70;2.37;;;;;;;8.99;41.33;102179.00;5234448;28;20025;-74
2022/04/03 11:24:06;;;;;;;4.10;1.60;;;;;;;9.24;39.99;102168.13;5234429;28;20024;-75
2022/04/03 11:26:39;;;;;;;3.67;1.50;;;;;;;9.28;38.94;102167.31;5233662;28;20029;-76
2022/04/03 11:29:11;;;;;;;2.67;1.58;;;;;;;8.70;39.42;102166.38;5216229;28;20112;-74
2022/04/03 11:31:43;;;;;;;5.97;1.77;;;;;;;8.03;40.74;102166.84;5235937;28;20116;-77
2022/04/03 11:34:14;;;;;;;3.20;1.30;;;;;;;7.98;41.46;102166.75;5219793;28;20052;-74
2022/04/03 11:36:46;;;;;;;4.87;2.23;;;;;;;7.82;42.60;102162.09;5237530;28;20038;-74
2022/04/03 11:39:17;;;;;;;5.67;1.70;;;;;;;7.28;42.61;102166.13;5237605;28;20032;-76
2022/04/03 11:41:51;;;;;;;5.43;1.60;;;;;;;7.28;43.54;102155.75;5237816;28;20029;-75
2022/04/03 11:44:24;;;;;;;2.17;1.33;;;;;;;7.41;43.82;102164.69;5237325;28;20030;-76
2022/04/03 11:46:55;;;;;;;3.10;1.40;;;;;;;7.69;43.50;102158.38;5237091;28;20067;-75
2022/04/03 11:49:30;;;;;;;2.97;1.50;;;;;;;7.80;41.33;102156.00;5237152;28;20030;-76
2022/04/03 11:52:10;;;;;;;5.25;1.70;;;;;;;7.95;41.88;102155.44;5237147;28;20026;-75